sensor_id;sensor_type;location;lat;lon;timestamp;P1;durP1;ratioP1;P2;durP2;ratioP2
505;SDS011;551;48.524;9.056;2023-07-16T00:01:56;5.83;;;3.50;;
505;SDS011;551;48.524;9.056;2023-07-16T00:04:21;4.00;;;3.17;;
505;SDS011;551;48.524;9.056;2023-07-16T00:06:47;5.10;;;3.03;;
505;SDS011;551;48.524;9.056;2023-07-16T00:09:13;3.90;;;3.50;;
505;SDS011;551;48.524;9.056;2023-07-16T00:11:38;5.17;;;3.40;;
505;SDS011;551;48.524;9.056;2023-07-16T00:14:04;3.37;;;2.93;;
505;SDS011;551;48.524;9.056;2023-07-16T00:16:30;26.13;;;4.10;;
505;SDS011;551;48.524;9.056;2023-07-16T00:18:55;5.73;;;3.67;;
505;SDS011;551;48.524;9.056;2023-07-16T00:21:21;3.33;;;3.13;;
505;SDS011;551;48.524;9.056;2023-07-16T00:23:46;4.47;;;3.67;;
505;SDS011;551;48.524;9.056;2023-07-16T00:26:12;4.93;;;3.60;;
505;SDS011;551;48.524;9.056;2023-07-16T00:28:38;5.83;;;3.43;;
505;SDS011;551;48.524;9.056;2023-07-16T00:31:04;4.90;;;3.70;;
505;SDS011;551;48.524;9.056;2023-07-16T00:33:29;4.80;;;3.40;;
505;SDS011;551;48.524;9.056;2023-07-16T00:35:55;4.37;;;3.53;;
505;SDS011;551;48.524;9.056;2023-07-16T00:38:20;5.50;;;4.00;;
505;SDS011;551;48.524;9.056;2023-07-16T00:40:46;4.17;;;3.30;;
505;SDS011;551;48.524;9.056;2023-07-16T00:43:11;3.17;;;2.87;;
505;SDS011;551;48.524;9.056;2023-07-16T00:45:38;5.10;;;2.77;;
505;SDS011;551;48.524;9.056;2023-07-16T00:48:04;3.13;;;2.47;;
505;SDS011;551;48.524;9.056;2023-07-16T00:50:31;2.77;;;2.57;;
505;SDS011;551;48.524;9.056;2023-07-16T00:53:04;2.50;;;2.20;;
505;SDS011;551;48.524;9.056;2023-07-16T00:55:30;3.60;;;2.30;;
505;SDS011;551;48.524;9.056;2023-07-16T00:58:01;2.60;;;2.40;;
505;SDS011;551;48.524;9.056;2023-07-16T01:00:30;5.63;;;2.50;;
505;SDS011;551;48.524;9.056;2023-07-16T01:03:03;3.87;;;2.37;;
505;SDS011;551;48.524;9.056;2023-07-16T01:08:21;3.00;;;2.63;;
505;SDS011;551;48.524;9.056;2023-07-16T01:10:56;1.80;;;1.70;;
505;SDS011;551;48.524;9.056;2023-07-16T01:13:22;1.90;;;1.80;;
505;SDS011;551;48.524;9.056;2023-07-16T01:15:49;2.03;;;1.60;;
505;SDS011;551;48.524;9.056;2023-07-16T01:18:14;1.53;;;1.30;;
505;SDS011;551;48.524;9.056;2023-07-16T01:20:40;1.73;;;1.43;;
505;SDS011;551;48.524;9.056;2023-07-16T01:26:02;3.13;;;1.80;;
505;SDS011;551;48.524;9.056;2023-07-16T01:31:29;1.30;;;1.20;;
505;SDS011;551;48.524;9.056;2023-07-16T01:33:55;1.40;;;1.30;;
505;SDS011;551;48.524;9.056;2023-07-16T01:36:22;1.67;;;1.57;;
505;SDS011;551;48.524;9.056;2023-07-16T01:38:49;1.50;;;1.40;;
505;SDS011;551;48.524;9.056;2023-07-16T01:41:14;2.93;;;1.60;;
505;SDS011;551;48.524;9.056;2023-07-16T01:43:40;1.77;;;1.67;;
505;SDS011;551;48.524;9.056;2023-07-16T01:46:05;3.30;;;1.70;;
505;SDS011;551;48.524;9.056;2023-07-16T01:48:35;1.80;;;1.60;;
505;SDS011;551;48.524;9.056;2023-07-16T01:51:02;2.63;;;2.03;;
505;SDS011;551;48.524;9.056;2023-07-16T01:53:28;1.60;;;1.50;;
505;SDS011;551;48.524;9.056;2023-07-16T01:55:53;2.13;;;1.70;;
505;SDS011;551;48.524;9.056;2023-07-16T01:58:19;1.60;;;1.50;;
505;SDS011;551;48.524;9.056;2023-07-16T02:00:44;1.80;;;1.70;;
505;SDS011;551;48.524;9.056;2023-07-16T02:03:10;3.00;;;1.83;;
505;SDS011;551;48.524;9.056;2023-07-16T02:05:36;2.70;;;1.60;;
505;SDS011;551;48.524;9.056;2023-07-16T02:08:02;1.67;;;1.57;;
505;SDS011;551;48.524;9.056;2023-07-16T02:10:28;1.57;;;1.47;;
505;SDS011;551;48.524;9.056;2023-07-16T02:12:53;1.43;;;1.33;;
505;SDS011;551;48.524;9.056;2023-07-16T02:15:19;4.30;;;2.67;;
505;SDS011;551;48.524;9.056;2023-07-16T02:17:45;2.20;;;2.10;;
505;SDS011;551;48.524;9.056;2023-07-16T02:20:10;5.23;;;1.70;;
505;SDS011;551;48.524;9.056;2023-07-16T02:22:36;2.03;;;1.63;;
505;SDS011;551;48.524;9.056;2023-07-16T02:25:02;1.63;;;1.53;;
505;SDS011;551;48.524;9.056;2023-07-16T02:27:27;1.87;;;1.77;;
505;SDS011;551;48.524;9.056;2023-07-16T02:29:53;7.03;;;2.00;;
505;SDS011;551;48.524;9.056;2023-07-16T02:32:19;1.97;;;1.83;;
505;SDS011;551;48.524;9.056;2023-07-16T02:34:45;1.70;;;1.60;;
505;SDS011;551;48.524;9.056;2023-07-16T02:37:10;5.57;;;1.90;;
505;SDS011;551;48.524;9.056;2023-07-16T02:39:36;2.10;;;1.90;;
505;SDS011;551;48.524;9.056;2023-07-16T02:42:03;2.00;;;1.47;;
505;SDS011;551;48.524;9.056;2023-07-16T02:44:29;2.50;;;1.50;;
505;SDS011;551;48.524;9.056;2023-07-16T02:46:54;2.63;;;1.60;;
505;SDS011;551;48.524;9.056;2023-07-16T02:49:20;1.90;;;1.80;;
505;SDS011;551;48.524;9.056;2023-07-16T02:51:46;1.87;;;1.67;;
505;SDS011;551;48.524;9.056;2023-07-16T02:54:11;2.13;;;2.03;;
505;SDS011;551;48.524;9.056;2023-07-16T02:56:37;5.60;;;1.90;;
505;SDS011;551;48.524;9.056;2023-07-16T02:59:03;1.83;;;1.70;;
505;SDS011;551;48.524;9.056;2023-07-16T03:01:28;2.90;;;2.20;;
505;SDS011;551;48.524;9.056;2023-07-16T03:03:54;3.27;;;1.87;;
505;SDS011;551;48.524;9.056;2023-07-16T03:06:19;8.90;;;2.30;;
505;SDS011;551;48.524;9.056;2023-07-16T03:08:45;2.43;;;1.73;;
505;SDS011;551;48.524;9.056;2023-07-16T03:11:10;2.20;;;2.00;;
505;SDS011;551;48.524;9.056;2023-07-16T03:13:36;3.77;;;1.93;;
505;SDS011;551;48.524;9.056;2023-07-16T03:16:02;4.47;;;2.10;;
505;SDS011;551;48.524;9.056;2023-07-16T03:18:28;2.40;;;1.83;;
505;SDS011;551;48.524;9.056;2023-07-16T03:20:54;1.87;;;1.60;;
505;SDS011;551;48.524;9.056;2023-07-16T03:23:20;4.43;;;1.87;;
505;SDS011;551;48.524;9.056;2023-07-16T03:25:46;4.90;;;1.77;;
505;SDS011;551;48.524;9.056;2023-07-16T03:28:12;6.03;;;1.67;;
505;SDS011;551;48.524;9.056;2023-07-16T03:30:38;4.03;;;1.90;;
505;SDS011;551;48.524;9.056;2023-07-16T03:33:04;3.20;;;2.00;;
505;SDS011;551;48.524;9.056;2023-07-16T03:35:29;2.70;;;1.80;;
505;SDS011;551;48.524;9.056;2023-07-16T03:37:55;3.80;;;1.77;;
505;SDS011;551;48.524;9.056;2023-07-16T03:40:24;1.87;;;1.77;;
505;SDS011;551;48.524;9.056;2023-07-16T03:42:51;1.73;;;1.60;;
505;SDS011;551;48.524;9.056;2023-07-16T03:45:17;1.90;;;1.60;;
505;SDS011;551;48.524;9.056;2023-07-16T03:47:42;1.80;;;1.70;;
505;SDS011;551;48.524;9.056;2023-07-16T03:50:08;2.30;;;1.67;;
505;SDS011;551;48.524;9.056;2023-07-16T03:52:36;2.70;;;1.50;;
505;SDS011;551;48.524;9.056;2023-07-16T03:55:02;2.00;;;1.80;;
505;SDS011;551;48.524;9.056;2023-07-16T03:57:28;2.40;;;1.83;;
505;SDS011;551;48.524;9.056;2023-07-16T03:59:54;2.80;;;1.77;;
505;SDS011;551;48.524;9.056;2023-07-16T04:02:19;2.13;;;1.93;;
505;SDS011;551;48.524;9.056;2023-07-16T04:04:45;2.83;;;2.10;;
505;SDS011;551;48.524;9.056;2023-07-16T04:07:11;2.50;;;2.03;;
505;SDS011;551;48.524;9.056;2023-07-16T04:09:37;2.67;;;1.90;;
505;SDS011;551;48.524;9.056;2023-07-16T04:12:04;3.97;;;1.90;;
505;SDS011;551;48.524;9.056;2023-07-16T04:14:30;1.97;;;1.50;;
505;SDS011;551;48.524;9.056;2023-07-16T04:16:56;4.47;;;1.93;;
505;SDS011;551;48.524;9.056;2023-07-16T04:19:21;3.17;;;1.87;;
505;SDS011;551;48.524;9.056;2023-07-16T04:21:47;4.37;;;2.07;;
505;SDS011;551;48.524;9.056;2023-07-16T04:24:12;2.10;;;1.90;;
505;SDS011;551;48.524;9.056;2023-07-16T04:26:38;1.73;;;1.63;;
505;SDS011;551;48.524;9.056;2023-07-16T04:29:03;2.13;;;1.77;;
505;SDS011;551;48.524;9.056;2023-07-16T04:31:29;2.03;;;1.93;;
505;SDS011;551;48.524;9.056;2023-07-16T04:33:54;3.10;;;1.97;;
505;SDS011;551;48.524;9.056;2023-07-16T04:36:20;3.97;;;2.03;;
505;SDS011;551;48.524;9.056;2023-07-16T04:38:45;6.60;;;2.10;;
505;SDS011;551;48.524;9.056;2023-07-16T04:41:10;2.20;;;1.90;;
505;SDS011;551;48.524;9.056;2023-07-16T04:43:37;5.27;;;2.23;;
505;SDS011;551;48.524;9.056;2023-07-16T04:46:03;1.83;;;1.73;;
505;SDS011;551;48.524;9.056;2023-07-16T04:48:29;2.80;;;2.57;;
505;SDS011;551;48.524;9.056;2023-07-16T04:50:54;2.60;;;1.87;;
505;SDS011;551;48.524;9.056;2023-07-16T04:53:22;3.30;;;1.63;;
505;SDS011;551;48.524;9.056;2023-07-16T04:55:48;2.30;;;2.10;;
505;SDS011;551;48.524;9.056;2023-07-16T04:58:14;3.20;;;2.00;;
505;SDS011;551;48.524;9.056;2023-07-16T05:00:40;2.80;;;1.80;;
505;SDS011;551;48.524;9.056;2023-07-16T05:03:05;1.83;;;1.73;;
505;SDS011;551;48.524;9.056;2023-07-16T05:05:31;3.20;;;1.60;;
505;SDS011;551;48.524;9.056;2023-07-16T05:07:56;6.20;;;1.87;;
505;SDS011;551;48.524;9.056;2023-07-16T05:10:22;2.77;;;1.43;;
505;SDS011;551;48.524;9.056;2023-07-16T05:12:48;3.80;;;1.90;;
505;SDS011;551;48.524;9.056;2023-07-16T05:15:14;2.23;;;2.00;;
505;SDS011;551;48.524;9.056;2023-07-16T05:17:40;2.27;;;1.90;;
505;SDS011;551;48.524;9.056;2023-07-16T05:20:05;8.63;;;1.80;;
505;SDS011;551;48.524;9.056;2023-07-16T05:22:32;3.00;;;2.10;;
505;SDS011;551;48.524;9.056;2023-07-16T05:24:58;4.10;;;3.10;;
505;SDS011;551;48.524;9.056;2023-07-16T05:27:23;3.77;;;1.80;;
505;SDS011;551;48.524;9.056;2023-07-16T05:29:49;7.03;;;2.43;;
505;SDS011;551;48.524;9.056;2023-07-16T05:32:15;3.77;;;2.37;;
505;SDS011;551;48.524;9.056;2023-07-16T05:34:40;2.90;;;2.30;;
505;SDS011;551;48.524;9.056;2023-07-16T05:37:06;6.10;;;2.13;;
505;SDS011;551;48.524;9.056;2023-07-16T05:39:31;2.67;;;2.10;;
505;SDS011;551;48.524;9.056;2023-07-16T05:41:57;3.10;;;2.10;;
505;SDS011;551;48.524;9.056;2023-07-16T05:44:23;3.67;;;1.87;;
505;SDS011;551;48.524;9.056;2023-07-16T05:46:48;4.90;;;2.23;;
505;SDS011;551;48.524;9.056;2023-07-16T05:49:14;5.37;;;2.30;;
505;SDS011;551;48.524;9.056;2023-07-16T05:51:39;4.17;;;2.00;;
505;SDS011;551;48.524;9.056;2023-07-16T05:54:05;5.23;;;2.70;;
505;SDS011;551;48.524;9.056;2023-07-16T05:56:31;9.17;;;2.03;;
505;SDS011;551;48.524;9.056;2023-07-16T05:58:57;2.47;;;2.03;;
505;SDS011;551;48.524;9.056;2023-07-16T06:01:22;4.37;;;2.33;;
505;SDS011;551;48.524;9.056;2023-07-16T06:03:48;3.97;;;2.10;;
505;SDS011;551;48.524;9.056;2023-07-16T06:06:14;4.27;;;2.00;;
505;SDS011;551;48.524;9.056;2023-07-16T06:08:39;6.13;;;2.00;;
505;SDS011;551;48.524;9.056;2023-07-16T06:11:04;6.73;;;2.17;;
505;SDS011;551;48.524;9.056;2023-07-16T06:13:30;5.00;;;2.00;;
505;SDS011;551;48.524;9.056;2023-07-16T06:15:56;2.90;;;2.03;;
505;SDS011;551;48.524;9.056;2023-07-16T06:18:21;4.20;;;1.90;;
505;SDS011;551;48.524;9.056;2023-07-16T06:20:47;3.73;;;2.00;;
505;SDS011;551;48.524;9.056;2023-07-16T06:23:13;8.43;;;2.00;;
505;SDS011;551;48.524;9.056;2023-07-16T06:25:38;5.77;;;2.00;;
505;SDS011;551;48.524;9.056;2023-07-16T06:28:05;2.93;;;1.67;;
505;SDS011;551;48.524;9.056;2023-07-16T06:30:31;6.37;;;2.63;;
505;SDS011;551;48.524;9.056;2023-07-16T06:32:57;3.20;;;2.20;;
505;SDS011;551;48.524;9.056;2023-07-16T06:35:23;6.70;;;2.10;;
505;SDS011;551;48.524;9.056;2023-07-16T06:37:49;5.13;;;2.00;;
505;SDS011;551;48.524;9.056;2023-07-16T06:40:14;3.13;;;2.03;;
505;SDS011;551;48.524;9.056;2023-07-16T06:42:40;3.90;;;2.30;;
505;SDS011;551;48.524;9.056;2023-07-16T06:45:06;3.17;;;2.10;;
505;SDS011;551;48.524;9.056;2023-07-16T06:47:32;3.50;;;2.13;;
505;SDS011;551;48.524;9.056;2023-07-16T06:49:57;7.13;;;2.30;;
505;SDS011;551;48.524;9.056;2023-07-16T06:52:23;3.20;;;1.90;;
505;SDS011;551;48.524;9.056;2023-07-16T06:54:55;5.87;;;2.53;;
505;SDS011;551;48.524;9.056;2023-07-16T06:57:21;6.47;;;2.30;;
505;SDS011;551;48.524;9.056;2023-07-16T06:59:49;2.53;;;2.13;;
505;SDS011;551;48.524;9.056;2023-07-16T07:02:18;7.17;;;2.37;;
505;SDS011;551;48.524;9.056;2023-07-16T07:04:44;7.13;;;2.23;;
505;SDS011;551;48.524;9.056;2023-07-16T07:07:09;2.70;;;1.70;;
505;SDS011;551;48.524;9.056;2023-07-16T07:09:35;6.77;;;2.60;;
505;SDS011;551;48.524;9.056;2023-07-16T07:12:01;2.47;;;2.27;;
505;SDS011;551;48.524;9.056;2023-07-16T07:14:27;4.60;;;1.80;;
505;SDS011;551;48.524;9.056;2023-07-16T07:16:52;2.13;;;1.93;;
505;SDS011;551;48.524;9.056;2023-07-16T07:19:18;5.90;;;2.03;;
505;SDS011;551;48.524;9.056;2023-07-16T07:21:43;2.83;;;2.33;;
505;SDS011;551;48.524;9.056;2023-07-16T07:24:09;4.10;;;2.10;;
505;SDS011;551;48.524;9.056;2023-07-16T07:26:34;2.20;;;1.97;;
505;SDS011;551;48.524;9.056;2023-07-16T07:29:00;5.17;;;2.40;;
505;SDS011;551;48.524;9.056;2023-07-16T07:31:25;3.63;;;1.87;;
505;SDS011;551;48.524;9.056;2023-07-16T07:33:51;2.43;;;2.07;;
505;SDS011;551;48.524;9.056;2023-07-16T07:36:18;6.50;;;2.00;;
505;SDS011;551;48.524;9.056;2023-07-16T07:38:44;2.47;;;2.27;;
505;SDS011;551;48.524;9.056;2023-07-16T07:41:09;5.90;;;2.53;;
505;SDS011;551;48.524;9.056;2023-07-16T07:43:35;2.40;;;2.00;;
505;SDS011;551;48.524;9.056;2023-07-16T07:46:00;4.53;;;2.60;;
505;SDS011;551;48.524;9.056;2023-07-16T07:48:26;2.43;;;2.00;;
505;SDS011;551;48.524;9.056;2023-07-16T07:50:51;4.87;;;2.07;;
505;SDS011;551;48.524;9.056;2023-07-16T07:53:17;3.70;;;2.30;;
505;SDS011;551;48.524;9.056;2023-07-16T07:55:45;3.13;;;2.20;;
505;SDS011;551;48.524;9.056;2023-07-16T07:58:11;3.30;;;2.57;;
505;SDS011;551;48.524;9.056;2023-07-16T08:00:37;3.30;;;2.50;;
505;SDS011;551;48.524;9.056;2023-07-16T08:03:03;2.97;;;2.00;;
505;SDS011;551;48.524;9.056;2023-07-16T08:05:28;3.33;;;2.10;;
505;SDS011;551;48.524;9.056;2023-07-16T08:07:54;3.40;;;2.20;;
505;SDS011;551;48.524;9.056;2023-07-16T08:10:20;7.20;;;2.00;;
505;SDS011;551;48.524;9.056;2023-07-16T08:12:46;2.40;;;2.10;;
505;SDS011;551;48.524;9.056;2023-07-16T08:15:12;2.40;;;2.30;;
505;SDS011;551;48.524;9.056;2023-07-16T08:17:42;3.03;;;1.60;;
505;SDS011;551;48.524;9.056;2023-07-16T08:20:08;5.77;;;2.10;;
505;SDS011;551;48.524;9.056;2023-07-16T08:22:34;3.90;;;1.90;;
505;SDS011;551;48.524;9.056;2023-07-16T08:24:59;2.93;;;2.53;;
505;SDS011;551;48.524;9.056;2023-07-16T08:27:25;2.70;;;1.90;;
505;SDS011;551;48.524;9.056;2023-07-16T08:29:50;5.60;;;2.20;;
505;SDS011;551;48.524;9.056;2023-07-16T08:32:16;3.97;;;2.20;;
505;SDS011;551;48.524;9.056;2023-07-16T08:34:41;4.80;;;2.10;;
505;SDS011;551;48.524;9.056;2023-07-16T08:37:07;2.93;;;1.80;;
505;SDS011;551;48.524;9.056;2023-07-16T08:39:33;2.40;;;2.10;;
505;SDS011;551;48.524;9.056;2023-07-16T08:41:59;2.80;;;1.87;;
505;SDS011;551;48.524;9.056;2023-07-16T08:44:24;2.20;;;2.00;;
505;SDS011;551;48.524;9.056;2023-07-16T08:46:51;1.87;;;1.70;;
505;SDS011;551;48.524;9.056;2023-07-16T08:49:17;2.13;;;1.80;;
505;SDS011;551;48.524;9.056;2023-07-16T08:51:45;3.33;;;2.00;;
505;SDS011;551;48.524;9.056;2023-07-16T08:54:12;2.20;;;2.00;;
505;SDS011;551;48.524;9.056;2023-07-16T08:56:41;7.47;;;2.40;;
505;SDS011;551;48.524;9.056;2023-07-16T08:59:07;2.57;;;2.13;;
505;SDS011;551;48.524;9.056;2023-07-16T09:01:34;2.30;;;2.10;;
505;SDS011;551;48.524;9.056;2023-07-16T09:04:00;1.93;;;1.80;;
505;SDS011;551;48.524;9.056;2023-07-16T09:06:25;3.53;;;2.40;;
505;SDS011;551;48.524;9.056;2023-07-16T09:08:51;3.00;;;2.43;;
505;SDS011;551;48.524;9.056;2023-07-16T09:11:17;8.67;;;2.40;;
505;SDS011;551;48.524;9.056;2023-07-16T09:13:46;3.50;;;2.10;;
505;SDS011;551;48.524;9.056;2023-07-16T09:16:12;3.20;;;2.33;;
505;SDS011;551;48.524;9.056;2023-07-16T09:18:39;4.27;;;2.27;;
505;SDS011;551;48.524;9.056;2023-07-16T09:21:05;2.60;;;2.20;;
505;SDS011;551;48.524;9.056;2023-07-16T09:23:32;2.17;;;2.00;;
505;SDS011;551;48.524;9.056;2023-07-16T09:25:58;3.97;;;2.30;;
505;SDS011;551;48.524;9.056;2023-07-16T09:28:23;2.83;;;2.00;;
505;SDS011;551;48.524;9.056;2023-07-16T09:30:50;3.57;;;2.13;;
505;SDS011;551;48.524;9.056;2023-07-16T09:33:17;2.20;;;2.10;;
505;SDS011;551;48.524;9.056;2023-07-16T09:35:47;2.73;;;2.20;;
505;SDS011;551;48.524;9.056;2023-07-16T09:38:14;3.17;;;2.60;;
505;SDS011;551;48.524;9.056;2023-07-16T09:40:40;2.93;;;2.20;;
505;SDS011;551;48.524;9.056;2023-07-16T09:43:09;2.70;;;2.20;;
505;SDS011;551;48.524;9.056;2023-07-16T09:45:40;2.20;;;2.00;;
505;SDS011;551;48.524;9.056;2023-07-16T09:48:07;4.30;;;2.83;;
505;SDS011;551;48.524;9.056;2023-07-16T09:50:34;2.83;;;2.63;;
505;SDS011;551;48.524;9.056;2023-07-16T09:53:00;3.00;;;2.43;;
505;SDS011;551;48.524;9.056;2023-07-16T09:55:28;2.90;;;1.97;;
505;SDS011;551;48.524;9.056;2023-07-16T09:57:57;2.23;;;2.03;;
505;SDS011;551;48.524;9.056;2023-07-16T10:00:25;2.60;;;2.37;;
505;SDS011;551;48.524;9.056;2023-07-16T10:02:52;2.80;;;2.23;;
505;SDS011;551;48.524;9.056;2023-07-16T10:05:18;2.97;;;2.33;;
505;SDS011;551;48.524;9.056;2023-07-16T10:07:57;3.90;;;2.73;;
505;SDS011;551;48.524;9.056;2023-07-16T10:10:40;2.47;;;2.10;;
505;SDS011;551;48.524;9.056;2023-07-16T10:13:10;3.27;;;1.90;;
505;SDS011;551;48.524;9.056;2023-07-16T10:15:38;3.10;;;2.47;;
505;SDS011;551;48.524;9.056;2023-07-16T10:18:04;2.33;;;2.03;;
505;SDS011;551;48.524;9.056;2023-07-16T10:20:34;2.33;;;2.10;;
505;SDS011;551;48.524;9.056;2023-07-16T10:23:14;2.90;;;2.30;;
505;SDS011;551;48.524;9.056;2023-07-16T10:25:41;2.60;;;2.40;;
505;SDS011;551;48.524;9.056;2023-07-16T10:28:30;5.40;;;2.60;;
505;SDS011;551;48.524;9.056;2023-07-16T10:30:59;2.47;;;2.27;;
505;SDS011;551;48.524;9.056;2023-07-16T10:33:25;2.40;;;2.13;;
505;SDS011;551;48.524;9.056;2023-07-16T10:35:51;2.57;;;2.20;;
505;SDS011;551;48.524;9.056;2023-07-16T10:38:16;2.57;;;2.47;;
505;SDS011;551;48.524;9.056;2023-07-16T10:40:45;2.33;;;2.13;;
505;SDS011;551;48.524;9.056;2023-07-16T10:43:11;3.00;;;2.20;;
505;SDS011;551;48.524;9.056;2023-07-16T10:45:37;3.03;;;2.30;;
505;SDS011;551;48.524;9.056;2023-07-16T10:48:04;3.00;;;2.57;;
505;SDS011;551;48.524;9.056;2023-07-16T10:50:32;2.80;;;2.30;;
505;SDS011;551;48.524;9.056;2023-07-16T10:52:59;2.93;;;2.40;;
505;SDS011;551;48.524;9.056;2023-07-16T10:55:26;4.20;;;2.57;;
505;SDS011;551;48.524;9.056;2023-07-16T10:57:52;2.70;;;2.00;;
505;SDS011;551;48.524;9.056;2023-07-16T11:00:19;2.90;;;2.43;;
505;SDS011;551;48.524;9.056;2023-07-16T11:02:45;2.50;;;2.30;;
505;SDS011;551;48.524;9.056;2023-07-16T11:05:15;2.30;;;2.10;;
505;SDS011;551;48.524;9.056;2023-07-16T11:07:45;3.83;;;2.47;;
505;SDS011;551;48.524;9.056;2023-07-16T11:10:18;3.20;;;2.60;;
505;SDS011;551;48.524;9.056;2023-07-16T11:12:43;4.20;;;2.10;;
505;SDS011;551;48.524;9.056;2023-07-16T11:15:09;3.37;;;2.50;;
505;SDS011;551;48.524;9.056;2023-07-16T11:17:38;4.07;;;2.37;;
505;SDS011;551;48.524;9.056;2023-07-16T11:20:06;2.40;;;2.20;;
505;SDS011;551;48.524;9.056;2023-07-16T11:22:33;2.57;;;2.37;;
505;SDS011;551;48.524;9.056;2023-07-16T11:25:02;2.70;;;2.30;;
505;SDS011;551;48.524;9.056;2023-07-16T11:27:31;3.37;;;2.50;;
505;SDS011;551;48.524;9.056;2023-07-16T11:29:57;3.90;;;2.47;;
505;SDS011;551;48.524;9.056;2023-07-16T11:32:28;2.40;;;2.20;;
505;SDS011;551;48.524;9.056;2023-07-16T11:34:58;2.87;;;2.57;;
505;SDS011;551;48.524;9.056;2023-07-16T11:37:25;2.97;;;2.77;;
505;SDS011;551;48.524;9.056;2023-07-16T11:40:02;3.70;;;2.67;;
505;SDS011;551;48.524;9.056;2023-07-16T11:42:29;6.10;;;2.37;;
505;SDS011;551;48.524;9.056;2023-07-16T11:44:59;3.83;;;2.20;;
505;SDS011;551;48.524;9.056;2023-07-16T11:47:25;4.23;;;2.57;;
505;SDS011;551;48.524;9.056;2023-07-16T11:49:51;3.03;;;2.23;;
505;SDS011;551;48.524;9.056;2023-07-16T11:52:21;5.27;;;2.60;;
505;SDS011;551;48.524;9.056;2023-07-16T11:54:54;7.23;;;2.63;;
505;SDS011;551;48.524;9.056;2023-07-16T11:57:21;4.00;;;2.53;;
505;SDS011;551;48.524;9.056;2023-07-16T11:59:46;2.30;;;2.10;;
505;SDS011;551;48.524;9.056;2023-07-16T12:02:12;2.60;;;2.40;;
505;SDS011;551;48.524;9.056;2023-07-16T12:04:38;4.20;;;2.80;;
505;SDS011;551;48.524;9.056;2023-07-16T12:07:03;2.43;;;2.23;;
505;SDS011;551;48.524;9.056;2023-07-16T12:09:29;2.87;;;2.53;;
505;SDS011;551;48.524;9.056;2023-07-16T12:11:54;6.87;;;2.60;;
505;SDS011;551;48.524;9.056;2023-07-16T12:14:21;2.37;;;2.17;;
505;SDS011;551;48.524;9.056;2023-07-16T12:16:46;3.73;;;2.63;;
505;SDS011;551;48.524;9.056;2023-07-16T12:19:12;3.60;;;2.37;;
505;SDS011;551;48.524;9.056;2023-07-16T12:21:37;5.53;;;2.63;;
505;SDS011;551;48.524;9.056;2023-07-16T12:24:03;4.93;;;2.47;;
505;SDS011;551;48.524;9.056;2023-07-16T12:26:29;2.40;;;2.20;;
505;SDS011;551;48.524;9.056;2023-07-16T12:28:54;3.90;;;2.47;;
505;SDS011;551;48.524;9.056;2023-07-16T12:31:20;3.93;;;2.47;;
505;SDS011;551;48.524;9.056;2023-07-16T12:33:46;2.43;;;1.93;;
505;SDS011;551;48.524;9.056;2023-07-16T12:36:11;2.60;;;2.10;;
505;SDS011;551;48.524;9.056;2023-07-16T12:38:37;3.67;;;2.57;;
505;SDS011;551;48.524;9.056;2023-07-16T12:41:03;3.87;;;2.17;;
505;SDS011;551;48.524;9.056;2023-07-16T12:43:28;4.20;;;2.50;;
505;SDS011;551;48.524;9.056;2023-07-16T12:45:54;5.30;;;2.60;;
505;SDS011;551;48.524;9.056;2023-07-16T12:48:19;3.03;;;2.00;;
505;SDS011;551;48.524;9.056;2023-07-16T12:50:45;4.80;;;2.80;;
505;SDS011;551;48.524;9.056;2023-07-16T12:53:11;2.20;;;2.10;;
505;SDS011;551;48.524;9.056;2023-07-16T12:55:37;2.37;;;2.00;;
505;SDS011;551;48.524;9.056;2023-07-16T12:58:03;3.33;;;2.33;;
505;SDS011;551;48.524;9.056;2023-07-16T13:00:28;2.60;;;2.00;;
505;SDS011;551;48.524;9.056;2023-07-16T13:02:54;3.10;;;2.00;;
505;SDS011;551;48.524;9.056;2023-07-16T13:05:19;3.13;;;2.40;;
505;SDS011;551;48.524;9.056;2023-07-16T13:07:45;3.63;;;2.03;;
505;SDS011;551;48.524;9.056;2023-07-16T13:10:10;2.47;;;2.20;;
505;SDS011;551;48.524;9.056;2023-07-16T13:12:36;2.73;;;2.33;;
505;SDS011;551;48.524;9.056;2023-07-16T13:15:01;5.00;;;2.63;;
505;SDS011;551;48.524;9.056;2023-07-16T13:17:27;3.07;;;2.40;;
505;SDS011;551;48.524;9.056;2023-07-16T13:19:53;3.93;;;2.40;;
505;SDS011;551;48.524;9.056;2023-07-16T13:22:18;2.70;;;2.50;;
505;SDS011;551;48.524;9.056;2023-07-16T13:24:44;4.10;;;2.40;;
505;SDS011;551;48.524;9.056;2023-07-16T13:27:10;2.87;;;2.53;;
505;SDS011;551;48.524;9.056;2023-07-16T13:29:44;4.03;;;2.57;;
505;SDS011;551;48.524;9.056;2023-07-16T13:32:10;3.43;;;2.30;;
505;SDS011;551;48.524;9.056;2023-07-16T13:34:35;3.87;;;2.20;;
505;SDS011;551;48.524;9.056;2023-07-16T13:37:01;4.27;;;2.03;;
505;SDS011;551;48.524;9.056;2023-07-16T13:39:26;4.03;;;2.73;;
505;SDS011;551;48.524;9.056;2023-07-16T13:41:52;5.40;;;2.37;;
505;SDS011;551;48.524;9.056;2023-07-16T13:44:17;3.10;;;2.27;;
505;SDS011;551;48.524;9.056;2023-07-16T13:46:43;3.00;;;2.30;;
505;SDS011;551;48.524;9.056;2023-07-16T13:49:09;4.17;;;2.27;;
505;SDS011;551;48.524;9.056;2023-07-16T13:51:34;2.80;;;2.60;;
505;SDS011;551;48.524;9.056;2023-07-16T13:53:59;2.57;;;2.30;;
505;SDS011;551;48.524;9.056;2023-07-16T13:56:25;4.80;;;2.30;;
505;SDS011;551;48.524;9.056;2023-07-16T13:58:50;2.37;;;2.03;;
505;SDS011;551;48.524;9.056;2023-07-16T14:01:16;5.63;;;2.10;;
505;SDS011;551;48.524;9.056;2023-07-16T14:03:43;2.53;;;2.33;;
505;SDS011;551;48.524;9.056;2023-07-16T14:06:08;3.97;;;2.30;;
505;SDS011;551;48.524;9.056;2023-07-16T14:08:34;3.23;;;2.30;;
505;SDS011;551;48.524;9.056;2023-07-16T14:11:01;2.90;;;2.30;;
505;SDS011;551;48.524;9.056;2023-07-16T14:13:27;3.30;;;2.60;;
505;SDS011;551;48.524;9.056;2023-07-16T14:15:53;2.50;;;2.30;;
505;SDS011;551;48.524;9.056;2023-07-16T14:18:18;2.50;;;2.30;;
505;SDS011;551;48.524;9.056;2023-07-16T14:20:44;3.03;;;2.40;;
505;SDS011;551;48.524;9.056;2023-07-16T14:23:09;2.93;;;2.13;;
505;SDS011;551;48.524;9.056;2023-07-16T14:25:35;3.83;;;2.97;;
505;SDS011;551;48.524;9.056;2023-07-16T14:28:00;2.57;;;2.37;;
505;SDS011;551;48.524;9.056;2023-07-16T14:30:26;2.83;;;2.20;;
505;SDS011;551;48.524;9.056;2023-07-16T14:32:52;2.90;;;2.30;;
505;SDS011;551;48.524;9.056;2023-07-16T14:35:17;4.30;;;3.00;;
505;SDS011;551;48.524;9.056;2023-07-16T14:37:43;3.43;;;2.27;;
505;SDS011;551;48.524;9.056;2023-07-16T14:40:08;3.20;;;2.20;;
505;SDS011;551;48.524;9.056;2023-07-16T14:42:34;7.93;;;2.80;;
505;SDS011;551;48.524;9.056;2023-07-16T14:45:00;4.50;;;2.33;;
505;SDS011;551;48.524;9.056;2023-07-16T14:47:25;5.10;;;2.83;;
505;SDS011;551;48.524;9.056;2023-07-16T14:49:51;5.60;;;2.60;;
505;SDS011;551;48.524;9.056;2023-07-16T14:52:17;3.83;;;2.20;;
505;SDS011;551;48.524;9.056;2023-07-16T14:54:44;3.00;;;2.70;;
505;SDS011;551;48.524;9.056;2023-07-16T14:57:09;3.43;;;3.13;;
505;SDS011;551;48.524;9.056;2023-07-16T14:59:34;4.97;;;2.30;;
505;SDS011;551;48.524;9.056;2023-07-16T15:02:01;3.70;;;2.70;;
505;SDS011;551;48.524;9.056;2023-07-16T15:04:27;2.70;;;2.50;;
505;SDS011;551;48.524;9.056;2023-07-16T15:06:53;3.67;;;2.33;;
505;SDS011;551;48.524;9.056;2023-07-16T15:09:19;5.20;;;2.60;;
505;SDS011;551;48.524;9.056;2023-07-16T15:11:44;4.20;;;2.70;;
505;SDS011;551;48.524;9.056;2023-07-16T15:14:10;2.53;;;2.30;;
505;SDS011;551;48.524;9.056;2023-07-16T15:16:36;2.97;;;2.37;;
505;SDS011;551;48.524;9.056;2023-07-16T15:19:02;4.47;;;2.97;;
505;SDS011;551;48.524;9.056;2023-07-16T15:21:27;4.77;;;3.07;;
505;SDS011;551;48.524;9.056;2023-07-16T15:23:53;4.60;;;2.00;;
505;SDS011;551;48.524;9.056;2023-07-16T15:26:18;3.50;;;2.47;;
505;SDS011;551;48.524;9.056;2023-07-16T15:28:44;9.20;;;3.47;;
505;SDS011;551;48.524;9.056;2023-07-16T15:31:10;3.97;;;2.50;;
505;SDS011;551;48.524;9.056;2023-07-16T15:33:37;8.93;;;2.90;;
505;SDS011;551;48.524;9.056;2023-07-16T15:36:03;5.23;;;2.17;;
505;SDS011;551;48.524;9.056;2023-07-16T15:38:28;3.57;;;2.87;;
505;SDS011;551;48.524;9.056;2023-07-16T15:40:54;3.00;;;2.53;;
505;SDS011;551;48.524;9.056;2023-07-16T15:43:20;6.07;;;2.97;;
505;SDS011;551;48.524;9.056;2023-07-16T15:45:45;5.17;;;2.73;;
505;SDS011;551;48.524;9.056;2023-07-16T15:48:11;4.33;;;2.60;;